Share

Casper, WY

North of Casper, WY (KWYBARNU1) Elev 5325 ft | 42.91 °N, 106.35 °W | Change Station

Current weather conditions updated 4 minutes ago

Clear
Clear
60.6 °F
Feels Like 60.6 °F
N
6.2
Wind Variable Wind from North
Gusts 17.6 mph
Sunrise 6:20 AM
Sunset 7:49 PM
Moon Waning Gibbous

Today is forecast to be Much Warmer than yesterday.

Pressure 29.94 in
Visibility 10.0 miles
Clouds Clear
Dew Point 25 °F
Humidity 26%
Rainfall 0.00 in
Snow Depth 55 in
UV 10 out of 16
Pollen 9.30 out of 12
Air Quality Not available.
Flu Activity Sporadic
METAR KCPR 171853Z 23012G19KT 10SM CLR 13/M04 A2998 RMK AO2 SLP137 T01331044

More Conditions Fewer Conditions

Pressure 29.94 in
Visibility 10.0 miles
Clouds Clear
Dew Point 25 °F
Humidity 26%
Rainfall 0.00 in
Snow Depth 55 in
UV 10 out of 16
Pollen 9.30 out of 12
Air Quality Not available.
Flu Activity Sporadic
METAR KCPR 171853Z 23012G19KT 10SM CLR 13/M04 A2998 RMK AO2 SLP137 T01331044

More Conditions Fewer Conditions

10-Day Forecast

Almanac

Astronomy

Apr. 17, 2014 Rise Set
Actual Time 6:20 AM MDT 7:49 PM MDT
Civil Twilight 5:50 AM MDT 8:19 PM MDT
Nautical Twilight 5:15 AM MDT 8:55 PM MDT
Astronomical Twilight 4:37 AM MDT 9:33 PM MDT
Moon 10:41 PM MDT 7:51 AM MDT
Length of Visible Light 14h 28m
Length of Day
13h 29m
Tomorrow will be 2m 45s longer.
Waning Gibbous, 93% of the Moon is Illuminated
Today
Waning Gibbous
Apr 22
Last Quarter
Apr 29
New
May 6
First Quarter
May 14
Full

Today's Extremes

State Highs State Lows

Community

  • New Day
    New Day
  • Lake Michigan Sunrise
    Lake Michigan Sunrise
  • sunset from izmir, narlıdere
    sunset from izmir, narlıdere
  • oregon cherry
    oregon cherry
  • Sunset over the Bay
    Sunset over the Bay

WunderPhotos

Upload Photos

1,702,107 photos uploaded!

Nearby

Snow Depth

Station Depth Elevation
Casper Mountain 55 in 7850 ft
Reno Hill 62 in 8500 ft
Laprele Creek 30 in 8375 ft
Windy Peak 30 in 7900 ft
Sand Lake 101 in 10050 ft

Coastal Water Temperatures

Place Temperature
No Stations Reporting

Earthquake Activity

City Distance Mag. Time & Date
No recent earthquake activity has been reported nearby.
Minimum magnitude displayed is 2.5.

Nearby Weather Stations

Station Location Temp. Windchill Dew Point Humidity Wind Precip. Elev Updated Type
HADS MILLS TEST STATION WY, Casper, WY 53 °F - - - North  at  - 0.00 in / hr 5148 ft 12:00 PM MDT MADIS
North of Casper, WY, Bar Nunn, WY 60.6 °F - 25 °F 26% North  at  6.2 mph 0.00 in / hr 5325 ft 1:35 PM MDT Normal
North of Rolling Hills WY, Glenrock, WY 55.1 °F - 20 °F 25% North  at  14.0 mph 0.00 in / hr 5384 ft 1:39 PM MDT Rapid Fire
RAWS CASPER MOUNTAIN WY, Casper, WY 44 °F 37 °F 17 °F 34% South  at  14 mph 0.00 in / hr 7740 ft 12:52 PM MDT MADIS

Show More Stations Show Fewer Stations

What do you think?

We're not finished. Please let us know what you like, what you don't like, and what you are still missing.